Time;durP1;ratioP1;P1;durP2;ratioP2;P2;SDS_P1;SDS_P2;PMS_P1;PMS_P2;Temp;Humidity;BMP_temperature;BMP_pressure;BME280_temperature;BME280_humidity;BME280_pressure;Samples;Min_cycle;Max_cycle;Signal;HPM_P1;HPM_P2
2023/10/15 00:02:01;;;;;;;1.75;0.10;;;7.50;99.90;;;;;;5095383;28;20098;-74
2023/10/15 00:04:26;;;;;;;1.75;0.10;;;7.50;99.90;;;;;;5094967;28;20063;-74
2023/10/15 00:06:52;;;;;;;1.50;0.17;;;7.50;99.90;;;;;;5076747;28;20390;-74
2023/10/15 00:09:17;;;;;;;1.35;0.00;;;7.50;99.90;;;;;;5094912;28;20077;-74
2023/10/15 00:11:43;;;;;;;2.63;0.17;;;7.50;99.90;;;;;;5094866;28;20020;-74
2023/10/15 00:14:09;;;;;;;7.57;0.45;;;7.50;99.90;;;;;;5095286;28;20394;-74
2023/10/15 00:16:34;;;;;;;1.95;0.00;;;7.50;99.90;;;;;;5094930;28;20027;-74
2023/10/15 00:19:09;;;;;;;2.83;0.00;;;7.50;99.90;;;;;;5076557;28;20034;-74
2023/10/15 00:21:36;;;;;;;3.15;0.00;;;7.50;99.90;;;;;;5095148;28;20111;-74
2023/10/15 00:24:05;;;;;;;2.83;0.00;;;7.50;99.90;;;;;;5094635;28;20017;-74
2023/10/15 00:26:31;;;;;;;4.03;0.05;;;7.60;99.90;;;;;;5094225;28;20028;-74
2023/10/15 00:28:57;;;;;;;4.35;0.10;;;7.60;99.90;;;;;;5094492;28;20077;-74
2023/10/15 00:31:24;;;;;;;4.47;0.40;;;7.40;99.90;;;;;;5094384;28;20476;-74
2023/10/15 00:33:50;;;;;;;0.77;0.10;;;7.40;99.90;;;;;;5094311;28;20077;-74
2023/10/15 00:36:16;;;;;;;1.13;0.00;;;7.30;99.90;;;;;;5094239;28;20059;-74
2023/10/15 00:38:43;;;;;;;2.50;0.10;;;7.30;99.90;;;;;;5094265;28;20434;-74
2023/10/15 00:41:10;;;;;;;3.53;0.00;;;7.20;99.90;;;;;;5094190;28;20028;-74
2023/10/15 00:43:36;;;;;;;2.00;0.30;;;7.20;99.90;;;;;;5094317;28;20115;-74
2023/10/15 00:46:06;;;;;;;2.22;0.10;;;7.10;99.90;;;;;;5075898;28;20055;-74
2023/10/15 00:48:35;;;;;;;2.47;0.00;;;7.20;99.90;;;;;;5076109;28;20538;-75
2023/10/15 00:51:03;;;;;;;;;;;7.20;99.90;;;;;;5094562;28;20020;-74
2023/10/15 00:53:29;;;;;;;1.92;0.10;;;7.30;99.90;;;;;;5094210;28;20274;-74
2023/10/15 00:56:03;;;;;;;1.08;0.00;;;7.30;99.90;;;;;;5094226;28;20032;-74
2023/10/15 00:58:35;;;;;;;3.38;0.00;;;7.30;99.90;;;;;;5094590;28;20034;-74
2023/10/15 01:04:07;;;;;;;3.58;0.00;;;7.40;99.90;;;;;;5094316;28;20093;-74
2023/10/15 01:09:10;;;;;;;2.00;0.30;;;7.50;99.90;;;;;;5093685;28;20024;-74
2023/10/15 01:11:58;;;;;;;1.45;0.00;;;7.50;99.90;;;;;;5093787;28;20024;-75
2023/10/15 01:14:31;;;;;;;5.80;0.25;;;7.60;99.90;;;;;;5093854;28;20133;-75
2023/10/15 01:16:59;;;;;;;1.70;0.17;;;7.60;99.90;;;;;;5093686;28;20028;-74
2023/10/15 01:19:32;;;;;;;6.80;0.17;;;7.60;99.90;;;;;;5093781;28;20028;-75
2023/10/15 01:22:10;;;;;;;3.70;0.00;;;7.60;99.90;;;;;;5075645;28;20020;-75
2023/10/15 01:24:37;;;;;;;1.80;0.00;;;7.70;99.90;;;;;;5093845;28;20031;-74
2023/10/15 01:29:35;;;;;;;3.70;0.00;;;7.60;99.90;;;;;;5094184;28;20093;-74
2023/10/15 01:32:07;;;;;;;0.75;0.13;;;7.60;99.90;;;;;;5093634;28;20085;-74
2023/10/15 01:34:41;;;;;;;1.40;0.00;;;7.60;99.90;;;;;;5093490;28;20112;-74
2023/10/15 01:39:48;;;;;;;1.75;0.00;;;7.60;99.90;;;;;;5094879;28;20123;-74
2023/10/15 01:45:13;;;;;;;1.88;0.63;;;7.50;99.90;;;;;;5097514;28;20445;-74
2023/10/15 01:47:54;;;;;;;2.17;0.00;;;7.60;99.90;;;;;;5097556;28;20027;-74
2023/10/15 01:50:23;;;;;;;1.88;0.15;;;7.50;99.90;;;;;;5097619;28;20040;-74
2023/10/15 01:52:54;;;;;;;1.55;0.00;;;7.50;99.90;;;;;;5079320;28;20088;-74
2023/10/15 01:55:19;;;;;;;2.83;0.00;;;7.50;99.90;;;;;;5079249;28;20031;-74
2023/10/15 01:57:46;;;;;;;0.32;0.00;;;8.30;99.90;;;;;;5079250;28;20024;-74
2023/10/15 02:00:14;;;;;;;0.30;0.00;;;7.60;99.90;;;;;;5079342;28;20521;-74
2023/10/15 02:02:41;;;;;;;3.30;0.00;;;7.60;99.90;;;;;;5097316;28;20023;-74
2023/10/15 02:05:28;;;;;;;0.28;0.00;;;7.50;99.90;;;;;;5097113;28;20039;-74
2023/10/15 02:07:56;;;;;;;1.35;0.00;;;7.50;99.90;;;;;;5097252;28;20028;-74
2023/10/15 02:10:24;;;;;;;5.40;0.28;;;8.60;99.90;;;;;;5079079;28;20137;-74
2023/10/15 02:12:59;;;;;;;0.28;0.00;;;7.40;99.90;;;;;;5097198;28;20121;-74
2023/10/15 02:15:25;;;;;;;0.00;0.00;;;7.40;99.90;;;;;;5096960;28;20111;-74
2023/10/15 02:17:52;;;;;;;0.00;0.00;;;7.40;99.90;;;;;;5097018;28;20140;-74
2023/10/15 02:20:40;;;;;;;0.85;0.05;;;7.30;99.90;;;;;;5097498;28;20081;-74
2023/10/15 02:23:04;;;;;;;0.40;0.15;;;7.30;99.90;;;;;;5096821;28;20097;-74
2023/10/15 02:25:34;;;;;;;1.27;0.00;;;7.20;99.90;;;;;;5096733;28;20020;-74
2023/10/15 02:28:00;;;;;;;1.13;0.00;;;7.20;99.90;;;;;;5078592;28;20027;-74
2023/10/15 02:30:26;;;;;;;0.73;0.00;;;7.20;99.90;;;;;;5078805;28;20024;-74
2023/10/15 02:32:53;;;;;;;1.02;0.00;;;7.10;99.90;;;;;;5078709;28;20024;-74
2023/10/15 02:35:24;;;;;;;0.00;0.00;;;7.00;99.90;;;;;;5096754;28;20468;-74
2023/10/15 02:37:49;;;;;;;0.10;0.00;;;7.00;99.90;;;;;;5078363;28;20121;-74
2023/10/15 02:40:20;;;;;;;1.35;0.30;;;6.90;99.90;;;;;;5078324;28;20021;-74
2023/10/15 02:42:53;;;;;;;0.40;0.00;;;6.90;99.90;;;;;;5097063;28;20065;-74
2023/10/15 02:45:23;;;;;;;0.45;0.10;;;6.90;99.90;;;;;;5096787;28;20144;-74
2023/10/15 02:47:49;;;;;;;1.65;0.00;;;6.80;99.90;;;;;;5096293;28;20024;-74
2023/10/15 02:50:23;;;;;;;0.63;0.00;;;6.70;99.90;;;;;;5097007;28;20029;-74
2023/10/15 02:52:49;;;;;;;1.80;0.00;;;6.60;99.90;;;;;;5077076;28;20394;-74
2023/10/15 02:55:16;;;;;;;1.65;0.00;;;6.60;99.90;;;;;;5077707;28;20476;-75
2023/10/15 02:57:43;;;;;;;0.20;0.00;;;6.40;99.90;;;;;;5096116;28;20054;-74
2023/10/15 03:00:28;;;;;;;0.50;0.10;;;6.40;99.90;;;;;;5078719;28;20112;-74
2023/10/15 03:02:56;;;;;;;1.45;0.00;;;6.40;99.90;;;;;;5096118;28;20027;-75
2023/10/15 03:05:30;;;;;;;0.75;0.00;;;6.40;99.90;;;;;;5077910;28;20040;-75
2023/10/15 03:07:56;;;;;;;0.10;0.08;;;6.40;99.90;;;;;;5077849;28;20024;-75
2023/10/15 03:10:22;;;;;;;0.10;0.00;;;6.50;99.90;;;;;;5078655;28;20020;-74
2023/10/15 03:12:48;;;;;;;1.98;0.00;;;6.50;99.90;;;;;;5095829;28;20070;-75
2023/10/15 03:15:15;;;;;;;0.30;0.00;;;6.60;99.90;;;;;;5096343;28;20043;-74
2023/10/15 03:17:42;;;;;;;0.00;0.00;;;6.80;99.90;;;;;;5077578;28;20434;-74
2023/10/15 03:22:45;;;;;;;0.93;0.00;;;6.90;99.90;;;;;;5096055;28;20043;-74
2023/10/15 03:25:13;;;;;;;1.63;0.17;;;7.00;99.90;;;;;;5095554;28;20087;-75
2023/10/15 03:27:46;;;;;;;0.32;0.10;;;6.90;99.90;;;;;;5095639;28;20483;-75
2023/10/15 03:30:15;;;;;;;0.55;0.00;;;7.00;99.90;;;;;;5096182;28;20061;-75
2023/10/15 03:32:44;;;;;;;0.55;0.15;;;7.00;99.90;;;;;;5095637;28;20069;-75
2023/10/15 03:35:27;;;;;;;1.67;0.00;;;7.00;99.90;;;;;;5095550;28;20020;-75
2023/10/15 03:37:59;;;;;;;5.18;0.00;;;6.90;99.90;;;;;;5077348;28;20024;-75
2023/10/15 03:40:32;;;;;;;1.38;0.15;;;6.90;99.90;;;;;;5077428;28;20087;-75
2023/10/15 03:43:06;;;;;;;0.20;0.00;;;6.90;99.90;;;;;;5077222;28;20099;-75
2023/10/15 03:45:33;;;;;;;2.05;0.00;;;7.10;99.90;;;;;;5095304;28;20031;-75
2023/10/15 03:48:00;;;;;;;1.65;0.00;;;6.90;99.90;;;;;;5077105;28;20406;-74
2023/10/15 03:50:29;;;;;;;1.83;0.13;;;6.90;99.90;;;;;;5095183;28;20012;-74
2023/10/15 03:52:56;;;;;;;1.13;0.00;;;7.00;99.90;;;;;;5095007;28;20016;-74
2023/10/15 03:55:22;;;;;;;1.35;0.00;;;7.00;99.90;;;;;;5095032;28;20024;-74
2023/10/15 03:57:51;;;;;;;1.50;0.00;;;7.00;99.90;;;;;;5076728;28;20028;-74
2023/10/15 04:00:34;;;;;;;4.22;0.10;;;7.10;99.90;;;;;;5076839;28;20016;-75
2023/10/15 04:03:18;;;;;;;0.60;0.00;;;7.10;99.90;;;;;;5077505;28;20028;-74
2023/10/15 04:05:52;;;;;;;0.10;0.00;;;7.20;99.90;;;;;;5076666;28;20028;-74
2023/10/15 04:08:19;;;;;;;2.60;0.00;;;7.20;99.90;;;;;;5094751;28;20028;-74
2023/10/15 04:10:55;;;;;;;3.00;0.10;;;7.20;99.90;;;;;;5094777;28;20556;-74
2023/10/15 04:13:21;;;;;;;4.60;0.00;;;7.20;99.90;;;;;;5094730;28;20101;-74
2023/10/15 04:15:47;;;;;;;0.85;0.00;;;7.10;99.90;;;;;;5076670;28;20024;-74
2023/10/15 04:18:12;;;;;;;2.25;0.00;;;7.10;99.90;;;;;;5094765;28;20024;-74
2023/10/15 04:20:42;;;;;;;0.68;0.00;;;7.10;99.90;;;;;;5095269;28;20107;-75
2023/10/15 04:23:13;;;;;;;2.05;0.00;;;7.00;99.90;;;;;;5076399;28;20028;-75
2023/10/15 04:25:39;;;;;;;1.83;0.20;;;7.00;99.90;;;;;;5076576;28;20024;-75
2023/10/15 04:28:12;;;;;;;3.60;0.00;;;6.80;99.90;;;;;;5094385;28;20066;-75
2023/10/15 04:30:41;;;;;;;1.33;0.28;;;6.80;99.90;;;;;;5077043;28;20027;-76
2023/10/15 04:33:10;;;;;;;9.20;0.20;;;6.70;99.90;;;;;;5094330;28;20027;-76
2023/10/15 04:35:37;;;;;;;1.10;0.47;;;6.60;99.90;;;;;;5076117;28;20042;-76
2023/10/15 04:38:07;;;;;;;0.00;0.00;;;6.50;99.90;;;;;;5076150;28;20028;-76
2023/10/15 04:43:24;;;;;;;0.57;0.00;;;6.30;99.90;;;;;;5094331;28;20522;-76
2023/10/15 04:45:50;;;;;;;0.13;0.00;;;6.20;99.90;;;;;;5094277;28;20417;-76
2023/10/15 04:49:05;;;;;;;0.70;0.00;;;6.10;99.90;;;;;;5093986;28;20084;-76
2023/10/15 04:51:12;;;;;;;2.00;0.00;;;5.90;99.90;;;;;;5085635;28;20043;-76
2023/10/15 04:53:39;;;;;;;3.53;0.00;;;5.90;99.90;;;;;;5094671;28;20024;-76
2023/10/15 04:56:04;;;;;;;0.98;0.00;;;5.70;99.90;;;;;;5093873;28;20483;-76
2023/10/15 04:58:30;;;;;;;0.57;0.00;;;5.70;99.90;;;;;;5094145;28;20095;-76
2023/10/15 05:00:59;;;;;;;0.75;0.00;;;5.50;99.90;;;;;;5093943;28;20020;-76
2023/10/15 05:03:24;;;;;;;2.28;0.00;;;5.50;99.90;;;;;;5094144;28;20028;-76
2023/10/15 05:05:51;;;;;;;0.43;0.00;;;5.50;99.90;;;;;;5093862;28;20099;-76
2023/10/15 05:08:17;;;;;;;2.30;0.00;;;5.50;99.90;;;;;;5093803;28;20138;-76
2023/10/15 05:10:53;;;;;;;3.75;0.00;;;5.50;99.90;;;;;;5093826;28;20035;-76
2023/10/15 05:13:19;;;;;;;1.75;0.00;;;5.50;99.90;;;;;;5075866;28;20024;-77
2023/10/15 05:15:46;;;;;;;0.68;0.00;;;5.50;99.90;;;;;;5093023;28;20387;-76
2023/10/15 05:18:11;;;;;;;0.30;0.00;;;5.60;99.90;;;;;;5093627;28;20022;-76
2023/10/15 05:20:37;;;;;;;2.10;0.00;;;5.60;99.90;;;;;;5093790;28;20032;-76
2023/10/15 05:23:03;;;;;;;0.25;0.08;;;5.80;99.90;;;;;;5093541;28;20081;-76
2023/10/15 05:25:29;;;;;;;0.65;0.30;;;5.80;99.90;;;;;;5093847;28;20016;-76
2023/10/15 05:27:55;;;;;;;1.25;0.00;;;5.90;99.90;;;;;;5093488;28;20020;-76
2023/10/15 05:30:21;;;;;;;4.65;0.10;;;6.00;99.90;;;;;;5093692;28;20548;-76
2023/10/15 05:32:48;;;;;;;3.13;0.00;;;6.00;99.90;;;;;;5075497;28;20028;-76
2023/10/15 05:35:17;;;;;;;0.93;0.00;;;6.00;99.90;;;;;;5093524;28;20009;-76
2023/10/15 05:37:44;;;;;;;1.95;0.00;;;6.00;99.90;;;;;;5075473;28;20035;-76
2023/10/15 05:40:12;;;;;;;0.68;0.00;;;5.90;99.90;;;;;;5093484;28;20031;-76
2023/10/15 05:42:37;;;;;;;0.40;0.00;;;5.90;99.90;;;;;;5075667;28;20483;-76
2023/10/15 05:45:06;;;;;;;1.52;0.00;;;5.80;99.90;;;;;;5093314;28;20103;-76
2023/10/15 05:47:33;;;;;;;0.30;0.00;;;5.80;99.90;;;;;;5075273;28;20051;-76
2023/10/15 05:49:59;;;;;;;0.75;0.00;;;5.80;99.90;;;;;;5075585;28;20023;-76
2023/10/15 05:52:25;;;;;;;0.90;0.00;;;5.80;99.90;;;;;;5093392;28;20024;-76
2023/10/15 05:54:53;;;;;;;3.00;0.00;;;5.90;99.90;;;;;;5075044;28;20020;-76
2023/10/15 05:57:21;;;;;;;2.95;0.50;;;5.90;99.90;;;;;;5075348;28;20028;-76
2023/10/15 05:59:48;;;;;;;2.15;0.00;;;5.90;99.90;;;;;;5093307;28;20514;-76
2023/10/15 06:02:13;;;;;;;6.38;0.25;;;6.10;99.90;;;;;;5075128;28;20017;-76
2023/10/15 06:04:39;;;;;;;1.95;0.00;;;;;;;;;;5093235;28;20034;-76
2023/10/15 06:07:05;;;;;;;2.25;0.10;;;6.30;99.90;;;;;;5075125;28;20036;-76
2023/10/15 06:09:31;;;;;;;4.03;0.40;;;6.30;99.90;;;;;;5093293;28;20086;-76
2023/10/15 06:11:57;;;;;;;6.38;0.30;;;6.40;99.90;;;;;;5093276;28;20027;-76
2023/10/15 06:14:23;;;;;;;3.78;0.10;;;6.40;99.90;;;;;;5075167;28;20391;-76
2023/10/15 06:16:52;;;;;;;2.00;0.10;;;6.50;99.90;;;;;;5074978;28;20028;-76
2023/10/15 06:19:18;;;;;;;1.95;0.00;;;6.50;99.90;;;;;;5074883;28;20395;-76
2023/10/15 06:21:44;;;;;;;1.60;0.00;;;6.50;99.90;;;;;;5074981;28;20024;-76
2023/10/15 06:24:10;;;;;;;3.08;0.10;;;6.60;99.90;;;;;;5075031;28;20368;-76
2023/10/15 06:26:37;;;;;;;0.15;0.00;;;6.70;99.90;;;;;;5076969;28;20111;-76
2023/10/15 06:29:03;;;;;;;0.63;0.22;;;6.70;99.90;;;;;;5096932;28;20533;-76
2023/10/15 06:31:31;;;;;;;0.17;0.00;;;6.80;99.90;;;;;;5097308;28;20027;-76
2023/10/15 06:33:57;;;;;;;4.30;0.10;;;6.80;99.90;;;;;;5096732;28;20024;-76
2023/10/15 06:36:22;;;;;;;1.90;0.00;;;6.90;99.90;;;;;;5096856;28;20074;-76
2023/10/15 06:38:50;;;;;;;0.82;0.00;;;6.90;99.90;;;;;;5096786;28;20523;-76
2023/10/15 06:41:15;;;;;;;2.80;0.00;;;6.90;99.90;;;;;;5096522;28;20097;-75
2023/10/15 06:43:41;;;;;;;6.13;0.22;;;;;;;;;;5096359;28;20024;-76
2023/10/15 06:46:08;;;;;;;1.25;0.47;;;7.10;99.90;;;;;;5078318;28;20031;-76
2023/10/15 06:48:41;;;;;;;1.90;0.13;;;7.00;99.90;;;;;;5096417;28;20536;-76
2023/10/15 06:51:06;;;;;;;1.70;0.57;;;7.10;99.90;;;;;;5078084;28;20024;-76
2023/10/15 06:53:34;;;;;;;3.10;0.20;;;7.10;99.90;;;;;;5096554;28;20081;-76
2023/10/15 06:56:00;;;;;;;0.10;0.00;;;7.10;99.90;;;;;;5078234;28;20028;-75
2023/10/15 06:58:28;;;;;;;1.48;0.20;;;7.20;99.90;;;;;;5096331;28;20020;-75
2023/10/15 07:00:56;;;;;;;1.75;0.00;;;7.20;99.90;;;;;;5096310;28;20027;-74
2023/10/15 07:03:21;;;;;;;2.17;0.10;;;7.20;99.90;;;;;;5096322;28;20035;-74
2023/10/15 07:05:47;;;;;;;4.47;0.22;;;7.30;99.90;;;;;;5096130;28;20020;-74
2023/10/15 07:08:13;;;;;;;3.38;0.05;;;7.20;99.90;;;;;;5096113;28;20031;-74
2023/10/15 07:10:39;;;;;;;5.93;0.00;;;7.20;99.90;;;;;;5096096;28;20050;-74
2023/10/15 07:13:05;;;;;;;1.30;0.00;;;7.20;99.90;;;;;;5094766;28;20024;-74
2023/10/15 07:15:32;;;;;;;3.40;0.00;;;7.20;99.90;;;;;;5095912;28;20035;-74
2023/10/15 07:17:58;;;;;;;2.28;0.00;;;7.20;99.90;;;;;;5095926;28;20062;-74
2023/10/15 07:20:29;;;;;;;1.00;0.00;;;7.90;99.90;;;;;;5095963;28;20119;-74
2023/10/15 07:22:56;;;;;;;4.82;0.03;;;7.20;99.90;;;;;;5077782;28;20031;-74
2023/10/15 07:25:27;;;;;;;0.70;0.00;;;7.20;99.90;;;;;;5095832;28;20024;-74
2023/10/15 07:27:53;;;;;;;1.45;0.00;;;7.20;99.90;;;;;;5096353;28;20028;-74
2023/10/15 07:30:19;;;;;;;5.03;0.00;;;7.30;99.90;;;;;;5077706;28;20055;-74
2023/10/15 07:32:45;;;;;;;0.52;0.00;;;7.80;99.90;;;;;;5077655;28;20020;-74
2023/10/15 07:35:13;;;;;;;2.95;0.40;;;7.30;99.90;;;;;;5095710;28;20027;-74
2023/10/15 07:37:44;;;;;;;3.22;0.10;;;7.20;99.90;;;;;;5095244;28;20050;-74
2023/10/15 07:40:56;;;;;;;6.13;0.00;;;7.30;99.90;;;;;;5096116;28;20020;-74
2023/10/15 07:42:59;;;;;;;1.75;0.00;;;7.40;99.90;;;;;;5085080;28;20036;-74
2023/10/15 07:45:29;;;;;;;2.22;0.10;;;7.80;99.90;;;;;;5095630;28;20476;-74
2023/10/15 07:47:56;;;;;;;1.58;0.00;;;7.80;99.90;;;;;;5095722;28;20027;-74
2023/10/15 07:50:24;;;;;;;3.25;0.00;;;8.00;99.90;;;;;;5077457;28;20016;-74
2023/10/15 07:52:51;;;;;;;0.82;0.22;;;8.10;99.90;;;;;;5095928;28;20519;-74
2023/10/15 07:55:17;;;;;;;0.28;0.00;;;8.10;99.90;;;;;;5077146;28;20028;-74
2023/10/15 07:57:43;;;;;;;1.55;0.00;;;8.10;99.90;;;;;;5077104;28;20024;-74
2023/10/15 08:00:22;;;;;;;1.05;0.00;;;8.10;99.90;;;;;;5095079;28;20068;-74
2023/10/15 08:02:52;;;;;;;6.40;0.47;;;8.10;99.90;;;;;;5076867;28;20028;-74
2023/10/15 08:05:21;;;;;;;1.67;0.00;;;8.10;99.90;;;;;;5076950;28;20157;-74
2023/10/15 08:07:48;;;;;;;;;;;8.10;99.90;;;;;;5095520;28;20024;-74
2023/10/15 08:10:14;;;;;;;1.95;0.00;;;8.10;99.90;;;;;;5095083;28;19904;-74
2023/10/15 08:12:40;;;;;;;1.63;0.00;;;8.10;99.90;;;;;;5094813;28;20024;-74
2023/10/15 08:15:07;;;;;;;0.77;0.10;;;8.10;99.90;;;;;;5094997;28;20146;-74
2023/10/15 08:17:33;;;;;;;0.43;0.00;;;8.10;99.90;;;;;;5076694;28;20031;-74
2023/10/15 08:19:58;;;;;;;1.27;0.00;;;8.10;99.90;;;;;;5095530;28;20464;-74
2023/10/15 08:22:25;;;;;;;1.05;0.00;;;8.10;99.90;;;;;;5094868;28;20036;-73
2023/10/15 08:24:50;;;;;;;2.60;0.00;;;8.20;99.90;;;;;;5076861;28;20027;-73
2023/10/15 08:27:16;;;;;;;1.38;0.38;;;8.20;99.90;;;;;;5094618;28;20550;-73
2023/10/15 08:29:42;;;;;;;0.20;0.00;;;8.20;99.90;;;;;;5076496;28;20023;-73
2023/10/15 08:32:14;;;;;;;0.30;0.00;;;8.30;99.90;;;;;;5094696;28;20442;-73
2023/10/15 08:34:40;;;;;;;0.00;0.00;;;;;;;;;;5094750;28;20024;-73
2023/10/15 08:37:07;;;;;;;0.75;0.00;;;8.40;99.90;;;;;;5094482;28;20020;-73
2023/10/15 08:39:34;;;;;;;5.35;0.00;;;8.50;99.90;;;;;;5094651;28;20472;-73
2023/10/15 08:42:03;;;;;;;0.45;0.00;;;8.50;99.90;;;;;;5094513;28;20032;-73
2023/10/15 08:44:29;;;;;;;1.67;0.25;;;8.40;99.90;;;;;;5094711;28;20024;-73
2023/10/15 08:47:00;;;;;;;3.78;0.15;;;8.40;99.90;;;;;;5094392;28;20052;-73
2023/10/15 08:49:32;;;;;;;4.43;0.00;;;8.50;99.90;;;;;;5075115;28;20365;-73
2023/10/15 08:51:59;;;;;;;1.40;0.00;;;8.60;99.90;;;;;;5076210;28;20073;-73
2023/10/15 08:54:26;;;;;;;0.63;0.00;;;8.80;99.90;;;;;;5075807;28;20027;-74
2023/10/15 08:56:54;;;;;;;1.65;0.00;;;9.10;99.90;;;;;;5094257;28;20077;-74
2023/10/15 08:59:22;;;;;;;2.15;0.35;;;9.40;99.90;;;;;;5094259;28;20028;-74
2023/10/15 09:01:52;;;;;;;0.80;0.00;;;9.60;99.90;;;;;;5094091;28;20060;-74
2023/10/15 09:04:18;;;;;;;2.70;0.00;;;9.90;99.90;;;;;;5094088;28;20050;-74
2023/10/15 09:06:47;;;;;;;2.40;0.00;;;11.80;99.90;;;;;;5093738;28;20472;-73
2023/10/15 09:09:13;;;;;;;3.05;0.00;;;10.00;99.90;;;;;;5075807;28;20012;-73
2023/10/15 09:11:42;;;;;;;1.90;0.00;;;9.90;99.90;;;;;;5093831;28;20080;-74
2023/10/15 09:14:13;;;;;;;;;;;9.70;99.90;;;;;;5075861;28;20036;-74
2023/10/15 09:16:46;;;;;;;2.00;0.00;;;9.60;99.90;;;;;;5093897;28;19911;-73
2023/10/15 09:19:12;;;;;;;0.95;0.03;;;9.60;99.90;;;;;;5076097;28;20020;-74
2023/10/15 09:21:38;;;;;;;2.97;0.00;;;9.50;99.90;;;;;;5093817;28;20494;-74
2023/10/15 09:24:05;;;;;;;0.55;0.00;;;9.50;99.90;;;;;;5093885;28;20047;-74
2023/10/15 09:26:31;;;;;;;4.13;0.00;;;9.50;99.90;;;;;;5093740;28;20028;-74
2023/10/15 09:28:57;;;;;;;3.35;0.00;;;9.50;99.90;;;;;;5075717;28;20016;-74
2023/10/15 09:31:25;;;;;;;2.50;0.00;;;9.40;99.90;;;;;;5094171;28;20020;-74
2023/10/15 09:33:51;;;;;;;4.40;0.38;;;9.40;99.90;;;;;;5093805;28;20030;-73
2023/10/15 09:36:17;;;;;;;0.65;0.00;;;9.50;99.90;;;;;;5075872;28;20379;-73
2023/10/15 09:38:43;;;;;;;2.78;0.00;;;9.60;99.90;;;;;;5094009;28;20024;-73
2023/10/15 09:41:10;;;;;;;0.35;0.00;;;9.90;99.90;;;;;;5093517;28;20121;-73
2023/10/15 09:43:35;;;;;;;3.72;0.15;;;10.00;99.90;;;;;;5093393;28;20016;-73
2023/10/15 09:46:06;;;;;;;2.30;0.15;;;10.70;99.90;;;;;;5093126;28;20024;-73
2023/10/15 09:48:34;;;;;;;2.15;0.00;;;10.00;99.90;;;;;;5075152;28;20024;-74
2023/10/15 09:51:00;;;;;;;2.63;0.00;;;10.00;99.90;;;;;;5093199;28;20095;-74
2023/10/15 09:53:34;;;;;;;1.95;0.00;;;9.90;99.90;;;;;;5074965;28;20296;-73
2023/10/15 09:56:07;;;;;;;1.23;0.10;;;9.90;99.90;;;;;;5093039;28;20043;-74
2023/10/15 09:58:33;;;;;;;2.75;0.00;;;10.00;99.90;;;;;;5074939;28;20027;-73
2023/10/15 10:01:08;;;;;;;3.63;0.28;;;10.20;99.90;;;;;;5094414;28;20028;-73
2023/10/15 10:03:49;;;;;;;1.92;0.10;;;10.40;99.90;;;;;;5096960;28;20104;-74
2023/10/15 10:06:42;;;;;;;1.67;0.00;;;10.60;99.90;;;;;;5096723;28;20054;-73
2023/10/15 10:09:25;;;;;;;5.40;0.15;;;11.00;99.90;;;;;;5097499;28;20028;-74
2023/10/15 10:12:16;;;;;;;1.90;0.00;;;11.30;99.90;;;;;;5078637;28;20052;-73
2023/10/15 10:15:00;;;;;;;4.80;0.10;;;11.10;99.90;;;;;;5096681;28;20111;-73
2023/10/15 10:17:28;;;;;;;1.85;0.03;;;11.10;99.90;;;;;;5096699;28;20111;-75
2023/10/15 10:19:54;;;;;;;1.88;0.00;;;11.00;99.90;;;;;;5096709;28;20162;-75
2023/10/15 10:22:23;;;;;;;3.50;0.68;;;11.00;99.90;;;;;;5096867;28;20032;-75
2023/10/15 10:24:49;;;;;;;2.30;0.00;;;11.10;99.90;;;;;;5078215;28;20475;-75
2023/10/15 10:27:18;;;;;;;2.50;0.30;;;11.10;99.90;;;;;;5096913;28;20085;-75
2023/10/15 10:29:49;;;;;;;3.80;0.22;;;11.60;99.90;;;;;;5078221;28;20012;-75
2023/10/15 10:32:15;;;;;;;4.63;0.38;;;11.60;99.90;;;;;;5096397;28;20047;-75
2023/10/15 10:34:47;;;;;;;3.45;0.10;;;11.80;99.90;;;;;;5078202;28;20020;-75
2023/10/15 10:37:23;;;;;;;6.60;0.20;;;11.70;99.90;;;;;;5096359;28;20024;-75
2023/10/15 10:39:49;;;;;;;1.73;0.08;;;11.90;99.90;;;;;;5096252;28;20028;-75
2023/10/15 10:42:26;;;;;;;1.67;0.00;;;12.30;99.90;;;;;;5096215;28;20020;-78
2023/10/15 10:44:53;;;;;;;2.58;0.30;;;12.80;99.90;;;;;;5077879;28;20028;-75
2023/10/15 10:47:29;;;;;;;2.33;0.00;;;12.80;99.90;;;;;;5077911;28;20395;-75
2023/10/15 10:50:00;;;;;;;2.65;0.00;;;11.90;99.90;;;;;;5078386;28;20051;-77
2023/10/15 10:52:36;;;;;;;1.38;0.03;;;11.80;99.90;;;;;;5078088;28;20392;-76
2023/10/15 10:55:29;;;;;;;0.45;0.00;;;11.30;99.90;;;;;;5096022;28;20043;-74
2023/10/15 10:57:54;;;;;;;0.25;0.00;;;10.50;99.90;;;;;;5096275;28;20055;-79
2023/10/15 11:00:20;;;;;;;4.40;0.55;;;9.90;99.90;;;;;;5096194;28;20024;-75
2023/10/15 11:02:47;;;;;;;0.00;0.00;;;9.20;99.90;;;;;;5096219;28;20028;-75
2023/10/15 11:05:13;;;;;;;0.77;0.00;;;9.10;99.90;;;;;;5077843;28;20391;-76
2023/10/15 11:07:40;;;;;;;0.90;0.00;;;8.90;99.90;;;;;;5077906;28;20021;-76
2023/10/15 11:10:07;;;;;;;0.52;0.00;;;8.70;99.90;;;;;;5077873;28;20383;-75
2023/10/15 11:12:32;;;;;;;1.70;0.00;;;8.70;99.90;;;;;;5076877;28;20023;-75
2023/10/15 11:14:58;;;;;;;0.88;0.17;;;8.70;99.90;;;;;;5078052;28;20024;-73
2023/10/15 11:17:24;;;;;;;0.25;0.00;;;8.70;99.90;;;;;;5077818;28;20059;-75
2023/10/15 11:19:50;;;;;;;1.45;0.00;;;9.10;99.90;;;;;;5077893;28;20081;-73
2023/10/15 11:22:15;;;;;;;1.10;0.35;;;9.30;99.90;;;;;;5096211;28;20416;-75
2023/10/15 11:24:43;;;;;;;0.93;0.00;;;9.90;99.90;;;;;;5095670;28;20048;-77
2023/10/15 11:27:12;;;;;;;2.28;0.00;;;9.80;99.90;;;;;;5095568;28;20123;-76
2023/10/15 11:29:37;;;;;;;0.10;0.00;;;10.10;99.90;;;;;;5095724;28;20099;-76
2023/10/15 11:32:06;;;;;;;0.73;0.00;;;10.40;99.90;;;;;;5077455;28;20265;-76
2023/10/15 11:34:33;;;;;;;0.00;0.00;;;10.70;99.90;;;;;;5095102;28;20031;-76
2023/10/15 11:37:01;;;;;;;4.13;0.45;;;11.10;99.90;;;;;;5075690;28;20028;-76
2023/10/15 11:39:37;;;;;;;0.00;0.00;;;11.20;99.90;;;;;;5094420;28;20048;-76
2023/10/15 11:42:07;;;;;;;2.35;0.00;;;11.30;99.90;;;;;;5096108;28;20110;-78
2023/10/15 11:44:37;;;;;;;0.10;0.00;;;11.50;99.90;;;;;;5093905;28;20070;-76
2023/10/15 11:47:12;;;;;;;1.52;0.00;;;12.40;99.90;;;;;;5073577;28;20024;-76
2023/10/15 11:49:38;;;;;;;0.63;0.00;;;11.90;99.90;;;;;;5094302;28;20107;-76
2023/10/15 11:52:11;;;;;;;0.73;0.00;;;12.10;99.90;;;;;;5076665;28;20443;-76
2023/10/15 11:54:43;;;;;;;1.65;0.00;;;12.20;99.90;;;;;;5094828;28;20384;-77
2023/10/15 11:57:16;;;;;;;1.85;0.20;;;12.40;99.90;;;;;;5094867;28;20502;-75
2023/10/15 11:59:45;;;;;;;3.67;0.00;;;12.50;99.90;;;;;;5077056;28;20027;-76
2023/10/15 12:02:11;;;;;;;1.55;0.00;;;12.70;99.90;;;;;;5076727;28;20028;-75
2023/10/15 12:04:38;;;;;;;1.63;0.00;;;12.70;99.90;;;;;;5091747;28;20020;-75
2023/10/15 12:07:05;;;;;;;0.47;0.00;;;13.00;99.90;;;;;;5094532;28;20098;-75
2023/10/15 12:09:32;;;;;;;0.85;0.00;;;12.90;99.90;;;;;;5094318;28;20557;-75
2023/10/15 12:11:59;;;;;;;0.57;0.00;;;12.90;99.90;;;;;;5074694;28;20492;-75
2023/10/15 12:14:24;;;;;;;3.00;0.25;;;13.10;99.90;;;;;;5081210;28;20114;-75
2023/10/15 12:16:50;;;;;;;0.85;0.00;;;13.30;99.90;;;;;;5094336;28;20111;-75
2023/10/15 12:19:17;;;;;;;1.42;0.00;;;13.30;99.90;;;;;;5091376;28;20058;-74
2023/10/15 12:21:44;;;;;;;0.32;0.00;;;13.20;99.90;;;;;;5094292;28;20031;-74
2023/10/15 12:24:13;;;;;;;1.20;0.00;;;13.20;99.90;;;;;;5094712;28;20100;-74
2023/10/15 12:26:39;;;;;;;0.60;0.10;;;13.00;99.90;;;;;;5094281;28;20024;-74
2023/10/15 12:29:05;;;;;;;0.60;0.00;;;12.80;99.90;;;;;;5076345;28;20020;-74
2023/10/15 12:31:32;;;;;;;1.35;0.00;;;12.60;99.90;;;;;;5094184;28;20016;-74
2023/10/15 12:34:00;;;;;;;2.97;0.30;;;12.40;99.90;;;;;;5094058;28;20081;-75
2023/10/15 12:36:28;;;;;;;1.83;0.00;;;12.10;99.90;;;;;;5093869;28;20024;-75
2023/10/15 12:38:54;;;;;;;1.67;0.00;;;11.90;99.90;;;;;;5093943;28;20027;-75
2023/10/15 12:41:21;;;;;;;1.27;0.00;;;11.90;99.90;;;;;;5093917;28;20431;-75
2023/10/15 12:43:47;;;;;;;1.02;0.00;;;11.80;99.90;;;;;;5076311;28;20087;-75
2023/10/15 12:46:13;;;;;;;2.20;0.00;;;11.80;99.90;;;;;;5074354;28;20047;-75
2023/10/15 12:48:38;;;;;;;0.68;0.10;;;11.80;99.90;;;;;;5090964;28;20020;-75
2023/10/15 12:51:04;;;;;;;0.88;0.00;;;12.10;99.90;;;;;;5083811;28;20021;-75
2023/10/15 12:53:30;;;;;;;3.10;0.13;;;12.60;99.90;;;;;;5092785;28;20020;-75
2023/10/15 12:55:56;;;;;;;2.83;0.00;;;12.90;99.90;;;;;;5074910;28;20417;-75
2023/10/15 12:58:22;;;;;;;0.28;0.00;;;13.10;99.90;;;;;;5075307;28;20506;-75
2023/10/15 13:00:51;;;;;;;0.68;0.00;;;13.40;99.90;;;;;;5070918;28;20261;-75
2023/10/15 13:03:18;;;;;;;0.57;0.00;;;13.80;99.90;;;;;;5073735;28;20024;-75
2023/10/15 13:05:43;;;;;;;0.63;0.00;;;14.00;99.90;;;;;;5074400;28;20430;-76
2023/10/15 13:08:09;;;;;;;2.78;0.00;;;14.80;99.90;;;;;;5092354;28;20035;-77
2023/10/15 13:10:35;;;;;;;2.40;0.00;;;14.30;99.90;;;;;;5073313;28;20567;-76
2023/10/15 13:13:01;;;;;;;1.20;0.43;;;15.10;99.90;;;;;;5093156;28;20035;-76
2023/10/15 13:15:27;;;;;;;4.93;0.75;;;14.50;99.90;;;;;;5092723;28;20410;-76
2023/10/15 13:17:55;;;;;;;1.42;0.00;;;14.70;99.90;;;;;;5093992;28;20055;-76
2023/10/15 13:20:23;;;;;;;1.67;0.00;;;14.80;99.90;;;;;;5092858;28;20020;-76
2023/10/15 13:22:49;;;;;;;1.02;0.00;;;15.00;99.90;;;;;;5093217;28;20031;-76